Time;durP1;ratioP1;P1;durP2;ratioP2;P2;SDS_P1;SDS_P2;PMS_P1;PMS_P2;Temp;Humidity;BMP_temperature;BMP_pressure;BME280_temperature;BME280_humidity;BME280_pressure;Samples;Min_cycle;Max_cycle;Signal;HPM_P1;HPM_P2
2023/08/08 00:01:19;;;;;;;376.48;210.50;;;;;;;13.73;100.00;100954.94;5074509;28;20107;-79
2023/08/08 00:03:44;;;;;;;380.35;211.82;;;;;;;13.75;100.00;100961.00;5072817;28;20463;-79
2023/08/08 00:06:10;;;;;;;376.77;211.57;;;;;;;13.74;100.00;100953.94;5074252;28;20056;-79
2023/08/08 00:08:36;;;;;;;367.67;206.40;;;;;;;13.68;100.00;100936.63;5056675;28;20032;-80
2023/08/08 00:11:01;;;;;;;366.85;203.57;;;;;;;13.74;100.00;100953.94;5055881;28;20387;-79
2023/08/08 00:13:27;;;;;;;365.20;204.75;;;;;;;13.62;100.00;100935.50;5073288;28;20038;-80
2023/08/08 00:15:52;;;;;;;365.35;203.68;;;;;;;13.53;100.00;100925.84;5074025;28;20073;-79
2023/08/08 00:18:18;;;;;;;363.10;203.02;;;;;;;13.58;100.00;100934.22;5072872;28;20056;-79
2023/08/08 00:20:44;;;;;;;359.55;201.18;;;;;;;13.56;100.00;100928.16;5056579;28;20464;-79
2023/08/08 00:23:10;;;;;;;366.23;204.38;;;;;;;13.64;100.00;100946.13;5071180;28;20032;-79
2023/08/08 00:25:36;;;;;;;361.27;201.82;;;;;;;13.67;100.00;100936.78;5073177;28;20039;-81
2023/08/08 00:28:03;;;;;;;365.85;205.30;;;;;;;13.70;100.00;100936.41;5072469;28;20479;-80
2023/08/08 00:30:28;;;;;;;362.40;203.63;;;;;;;13.69;100.00;100922.06;5022855;28;20035;-80
2023/08/08 00:32:54;;;;;;;364.75;204.18;;;;;;;13.68;100.00;100923.09;5072981;28;20028;-80
2023/08/08 00:35:19;;;;;;;358.90;201.73;;;;;;;13.71;100.00;100921.88;5052765;28;20037;-79
2023/08/08 00:37:45;;;;;;;360.92;202.77;;;;;;;13.61;100.00;100898.72;5052875;28;20039;-79
2023/08/08 00:40:11;;;;;;;360.58;203.68;;;;;;;13.68;100.00;100911.44;5052556;28;20025;-79
2023/08/08 00:42:36;;;;;;;366.83;205.65;;;;;;;13.51;100.00;100878.44;5052235;28;20044;-79
2023/08/08 00:45:03;;;;;;;358.75;202.55;;;;;;;13.76;100.00;100914.88;5070594;28;20467;-79
2023/08/08 00:47:33;;;;;;;361.27;203.52;;;;;;;13.79;100.00;100919.06;5040165;28;20033;-79
2023/08/08 00:50:00;;;;;;;362.05;204.93;;;;;;;13.81;100.00;100930.47;5044309;28;20037;-79
2023/08/08 00:52:43;;;;;;;362.20;204.88;;;;;;;13.77;100.00;100904.88;5003383;28;20071;-79
2023/08/08 00:55:14;;;;;;;359.88;203.65;;;;;;;13.82;100.00;100900.56;5054592;28;20086;-79
2023/08/08 00:57:41;;;;;;;358.23;202.10;;;;;;;13.90;100.00;100912.28;5072854;28;20029;-79
2023/08/08 01:00:09;;;;;;;358.55;202.00;;;;;;;13.85;100.00;100904.75;5039526;28;20495;-79
2023/08/08 01:02:35;;;;;;;355.83;200.32;;;;;;;13.87;100.00;100910.81;5072822;28;20033;-79
2023/08/08 01:05:01;;;;;;;356.45;200.65;;;;;;;13.85;100.00;100916.41;5071819;28;20036;-81
2023/08/08 01:07:30;;;;;;;356.58;200.93;;;;;;;13.81;100.00;100908.88;5055961;28;20040;-79
2023/08/08 01:10:11;;;;;;;355.42;200.55;;;;;;;13.77;100.00;100910.28;5072211;28;20059;-79
2023/08/08 01:12:42;;;;;;;353.90;200.18;;;;;;;13.72;100.00;100907.34;5069468;28;20044;-79
2023/08/08 01:15:08;;;;;;;355.20;200.40;;;;;;;13.71;100.00;100901.09;5055327;28;20104;-79
2023/08/08 01:17:35;;;;;;;356.45;201.40;;;;;;;13.67;100.00;100901.66;5072566;28;20074;-79
2023/08/08 01:20:05;;;;;;;353.25;199.43;;;;;;;13.68;100.00;100906.91;5072437;28;20029;-79
2023/08/08 01:22:36;;;;;;;357.15;201.63;;;;;;;13.66;100.00;100906.25;5038622;28;20033;-79
2023/08/08 01:25:03;;;;;;;352.88;200.32;;;;;;;13.56;100.00;100909.25;5039263;28;20090;-79
2023/08/08 01:27:40;;;;;;;363.65;206.48;;;;;;;13.56;100.00;100898.44;5072346;28;20035;-79
2023/08/08 01:30:07;;;;;;;357.00;202.13;;;;;;;13.59;100.00;100899.91;5072937;28;20471;-79
2023/08/08 01:32:32;;;;;;;358.40;202.63;;;;;;;13.62;100.00;100891.44;5071590;28;20056;-79
2023/08/08 01:34:58;;;;;;;360.55;203.98;;;;;;;13.61;100.00;100893.31;5055620;28;20076;-79
2023/08/08 01:37:36;;;;;;;358.73;202.15;;;;;;;13.59;100.00;100886.41;5054995;28;20039;-78
2023/08/08 01:40:03;;;;;;;360.05;201.60;;;;;;;13.54;100.00;100894.25;5060986;28;20536;-78
2023/08/08 01:42:29;;;;;;;356.23;202.43;;;;;;;13.51;100.00;100890.06;5076073;28;20032;-79
2023/08/08 01:44:55;;;;;;;358.20;203.07;;;;;;;13.48;100.00;100878.81;5050725;28;20057;-79
2023/08/08 01:47:21;;;;;;;356.42;201.93;;;;;;;13.51;100.00;100898.19;5039506;28;20379;-79
2023/08/08 01:49:47;;;;;;;358.98;203.60;;;;;;;13.52;100.00;100886.38;5057274;28;20031;-79
2023/08/08 01:52:12;;;;;;;357.33;202.93;;;;;;;13.52;100.00;100886.38;5055755;28;20045;-79
2023/08/08 01:54:38;;;;;;;355.00;201.07;;;;;;;13.32;100.00;100859.13;5062343;28;20112;-79
2023/08/08 01:57:04;;;;;;;359.17;202.02;;;;;;;13.52;100.00;100893.59;5077421;28;20036;-79
2023/08/08 01:59:30;;;;;;;355.08;201.35;;;;;;;13.51;100.00;100891.94;5059202;28;20039;-79
2023/08/08 02:01:55;;;;;;;357.20;203.13;;;;;;;13.44;100.00;100891.84;5077005;28;20066;-79
2023/08/08 02:04:21;;;;;;;355.25;201.82;;;;;;;13.36;100.00;100875.78;5075580;28;20440;-78
2023/08/08 02:06:46;;;;;;;357.08;202.70;;;;;;;13.43;100.00;100895.59;5076934;28;20037;-78
2023/08/08 02:09:14;;;;;;;357.02;202.48;;;;;;;13.22;100.00;100874.75;5076919;28;20029;-79
2023/08/08 02:11:40;;;;;;;356.73;202.65;;;;;;;13.39;100.00;100913.22;5075708;28;20078;-79
2023/08/08 02:14:06;;;;;;;356.98;202.68;;;;;;;13.39;100.00;100905.97;5075835;28;20033;-79
2023/08/08 02:16:31;;;;;;;362.13;204.50;;;;;;;13.22;100.00;100877.47;5059116;28;20386;-78
2023/08/08 02:18:57;;;;;;;362.48;205.00;;;;;;;13.36;100.00;100897.38;5075546;28;20391;-79
2023/08/08 02:21:23;;;;;;;361.25;205.57;;;;;;;13.35;100.00;100884.91;5059035;28;20036;-79
2023/08/08 02:23:48;;;;;;;357.95;202.88;;;;;;;13.31;100.00;100876.38;5074806;28;20064;-79
2023/08/08 02:26:14;;;;;;;356.80;203.40;;;;;;;13.31;100.00;100876.38;5075444;28;20029;-79
2023/08/08 02:28:40;;;;;;;360.30;205.35;;;;;;;13.34;100.00;100885.97;5076261;28;20190;-79
2023/08/08 02:31:05;;;;;;;356.90;203.45;;;;;;;13.22;100.00;100874.75;5042264;28;20043;-79
2023/08/08 02:33:31;;;;;;;350.98;200.43;;;;;;;13.20;100.00;100879.50;5075699;28;20037;-79
2023/08/08 02:35:57;;;;;;;354.92;202.82;;;;;;;13.10;100.00;100865.50;5075972;28;20043;-79
2023/08/08 02:38:22;;;;;;;360.02;203.88;;;;;;;13.04;100.00;100867.06;5075205;28;20028;-79
2023/08/08 02:40:48;;;;;;;357.35;204.00;;;;;;;12.94;100.00;100862.00;5075169;28;20155;-78
2023/08/08 02:43:13;;;;;;;342.95;196.82;;;;;;;12.93;100.00;100870.28;5075028;28;20033;-79
2023/08/08 02:45:39;;;;;;;342.65;196.77;;;;;;;12.76;100.00;100865.09;5075423;28;20438;-79
2023/08/08 02:48:05;;;;;;;343.40;197.30;;;;;;;12.66;100.00;100875.31;5075012;28;20425;-78
2023/08/08 02:50:30;;;;;;;344.45;198.43;;;;;;;12.63;100.00;100880.25;5074712;28;20031;-81
2023/08/08 02:52:56;;;;;;;347.42;200.23;;;;;;;12.61;100.00;100885.81;5074379;28;20040;-80
2023/08/08 02:55:22;;;;;;;347.02;199.73;;;;;;;12.59;100.00;100879.78;5074798;28;20036;-79
2023/08/08 02:57:47;;;;;;;345.60;198.52;;;;;;;12.43;100.00;100853.81;5075747;28;20063;-79
2023/08/08 03:00:34;;;;;;;347.88;200.40;;;;;;;12.46;100.00;100864.28;5074470;28;20070;-78
2023/08/08 03:02:59;;;;;;;343.17;199.25;;;;;;;12.24;100.00;100851.69;5040150;28;20037;-78
2023/08/08 03:05:25;;;;;;;346.73;199.63;;;;;;;12.30;100.00;100876.06;5054373;28;20036;-79
2023/08/08 03:07:50;;;;;;;343.77;199.35;;;;;;;12.27;100.00;100871.00;5055769;28;20032;-79
2023/08/08 03:10:16;;;;;;;336.90;194.93;;;;;;;12.20;100.00;100864.72;5056061;28;20036;-78
2023/08/08 03:12:41;;;;;;;335.40;194.07;;;;;;;12.15;100.00;100860.88;5072719;28;20044;-78
2023/08/08 03:15:07;;;;;;;324.83;189.52;;;;;;;12.18;100.00;100860.53;5075016;28;20032;-79
2023/08/08 03:17:34;;;;;;;314.65;184.60;;;;;;;12.19;100.00;100862.19;5075553;28;20360;-78
2023/08/08 03:20:01;;;;;;;326.02;188.73;;;;;;;12.06;100.00;100846.63;5074123;28;20085;-79
2023/08/08 03:22:26;;;;;;;326.63;190.30;;;;;;;12.09;100.00;100857.91;5052892;28;20058;-78
2023/08/08 03:24:52;;;;;;;326.23;189.82;;;;;;;12.26;100.00;100877.44;5054343;28;20032;-78
2023/08/08 03:27:17;;;;;;;324.00;189.57;;;;;;;12.34;100.00;100875.69;5054276;28;20471;-78
2023/08/08 03:29:43;;;;;;;328.83;191.85;;;;;;;12.35;100.00;100862.00;5055428;28;20035;-78
2023/08/08 03:32:08;;;;;;;321.25;188.15;;;;;;;12.39;100.00;100851.72;5056713;28;20524;-78
2023/08/08 03:34:34;;;;;;;322.50;188.80;;;;;;;12.43;100.00;100864.63;5053875;28;20036;-80
2023/08/08 03:37:00;;;;;;;272.13;158.77;;;;;;;12.48;100.00;100858.66;5073560;28;20118;-78
2023/08/08 03:39:26;;;;;;;329.17;190.75;;;;;;;12.50;100.00;100860.16;5075434;28;20025;-78
2023/08/08 03:41:52;;;;;;;325.42;189.60;;;;;;;12.52;100.00;100847.34;5074921;28;20107;-78
2023/08/08 03:44:17;;;;;;;324.08;189.45;;;;;;;12.46;100.00;100841.81;5073609;28;20479;-78
2023/08/08 03:46:43;;;;;;;327.83;190.98;;;;;;;12.48;100.00;100842.50;5075004;28;20037;-78
2023/08/08 03:49:08;;;;;;;319.50;186.52;;;;;;;12.37;100.00;100816.00;5073540;28;20031;-79
2023/08/08 03:51:40;;;;;;;319.20;186.70;;;;;;;12.42;100.00;100827.06;5056608;28;20469;-78
2023/08/08 03:54:06;;;;;;;324.77;189.77;;;;;;;12.38;100.00;100823.06;5057399;28;20040;-78
2023/08/08 03:56:37;;;;;;;330.98;193.20;;;;;;;12.34;100.00;100832.56;5042206;28;20036;-78
2023/08/08 03:59:02;;;;;;;329.52;192.25;;;;;;;12.18;100.00;100812.84;5075050;28;20439;-78
2023/08/08 04:01:28;;;;;;;332.23;195.25;;;;;;;12.23;100.00;100828.47;5072681;28;20127;-79
2023/08/08 04:03:59;;;;;;;333.95;195.25;;;;;;;12.11;100.00;100830.75;5073446;28;20082;-79
2023/08/08 04:06:28;;;;;;;327.45;192.05;;;;;;;11.98;100.00;100835.94;5055962;28;20048;-78
2023/08/08 04:08:53;;;;;;;328.75;193.80;;;;;;;12.04;100.00;100846.84;5074888;28;20031;-78
2023/08/08 04:11:19;;;;;;;338.38;201.70;;;;;;;12.11;100.00;100841.53;5072784;28;20033;-78
2023/08/08 04:13:45;;;;;;;332.73;195.55;;;;;;;12.04;100.00;100816.31;5074194;28;20028;-79
2023/08/08 04:16:10;;;;;;;330.08;193.82;;;;;;;11.92;100.00;100809.72;5074445;28;20158;-79
2023/08/08 04:18:36;;;;;;;324.85;191.63;;;;;;;11.86;100.00;100819.38;5056414;28;20379;-79
2023/08/08 04:21:01;;;;;;;325.92;192.60;;;;;;;11.74;100.00;100821.63;5073840;28;20028;-79
2023/08/08 04:23:27;;;;;;;324.92;192.15;;;;;;;11.60;100.00;100820.59;5074643;28;20040;-79
2023/08/08 04:25:53;;;;;;;325.52;193.45;;;;;;;11.43;100.00;100822.56;5072973;28;20032;-79
2023/08/08 04:28:19;;;;;;;325.85;193.02;;;;;;;11.32;100.00;100814.91;5072612;28;20024;-79
2023/08/08 04:30:45;;;;;;;314.13;187.90;;;;;;;11.00;100.00;100778.28;5035692;28;20379;-78
2023/08/08 04:33:15;;;;;;;317.90;189.02;;;;;;;11.26;100.00;100826.38;5052579;28;20044;-80
2023/08/08 04:35:41;;;;;;;322.60;193.00;;;;;;;11.04;100.00;100794.94;5036652;28;20063;-78
2023/08/08 04:38:06;;;;;;;324.58;193.48;;;;;;;11.04;100.00;100814.59;5052902;28;20033;-78
2023/08/08 04:40:32;;;;;;;327.05;195.82;;;;;;;10.94;100.00;100822.88;5063253;28;20040;-78
2023/08/08 04:42:58;;;;;;;326.65;195.48;;;;;;;10.79;100.00;100803.13;5072521;28;20043;-78
2023/08/08 04:45:23;;;;;;;329.08;197.85;;;;;;;10.80;100.00;100818.25;5072570;28;20467;-78
2023/08/08 04:47:49;;;;;;;333.00;200.05;;;;;;;10.71;100.00;100812.06;5072491;28;20036;-78
2023/08/08 04:50:15;;;;;;;332.05;199.85;;;;;;;10.83;100.00;100822.44;5071599;28;20037;-78
2023/08/08 04:52:40;;;;;;;328.55;197.70;;;;;;;10.90;100.00;100829.66;5072695;28;20028;-78
2023/08/08 04:55:06;;;;;;;329.20;199.55;;;;;;;11.02;100.00;100829.25;5056068;28;20495;-79
2023/08/08 04:57:32;;;;;;;332.83;200.60;;;;;;;11.04;100.00;100824.53;5072408;28;20488;-78
2023/08/08 04:59:57;;;;;;;347.30;207.40;;;;;;;10.92;100.00;100813.31;5051659;28;20104;-78
2023/08/08 05:02:23;;;;;;;336.77;202.18;;;;;;;11.01;100.00;100823.03;5052346;28;20116;-79
2023/08/08 05:04:49;;;;;;;339.35;203.15;;;;;;;10.92;100.00;100811.44;5053355;28;20464;-78
2023/08/08 05:07:15;;;;;;;340.48;204.93;;;;;;;10.96;100.00;100812.78;5052842;28;20028;-78
2023/08/08 05:09:41;;;;;;;339.83;204.15;;;;;;;10.96;100.00;100828.94;5055400;28;20386;-78
2023/08/08 05:12:07;;;;;;;349.95;210.30;;;;;;;11.01;100.00;100820.34;5072145;28;20039;-77
2023/08/08 05:14:32;;;;;;;352.60;210.65;;;;;;;11.12;100.00;100813.72;5072376;28;20028;-78
2023/08/08 05:16:58;;;;;;;349.88;209.40;;;;;;;11.30;100.00;100819.66;5055587;28;20421;-78
2023/08/08 05:19:25;;;;;;;346.20;207.20;;;;;;;11.42;100.00;100823.56;5051734;28;20033;-78
2023/08/08 05:21:50;;;;;;;348.58;206.70;;;;;;;11.57;100.00;100820.94;5053155;28;20119;-77
2023/08/08 05:24:16;;;;;;;340.38;202.45;;;;;;;11.78;100.00;100833.75;5053500;28;20112;-77
2023/08/08 05:26:41;;;;;;;345.52;204.80;;;;;;;11.95;100.00;100818.28;5035840;28;20040;-77
2023/08/08 05:29:07;;;;;;;354.08;209.65;;;;;;;12.14;100.00;100821.47;5068650;28;20041;-77
2023/08/08 05:31:32;;;;;;;349.95;205.75;;;;;;;12.22;100.00;100816.81;5072142;28;20028;-77
2023/08/08 05:33:58;;;;;;;358.23;208.52;;;;;;;12.50;100.00;100848.53;5073391;28;20047;-77
2023/08/08 05:36:24;;;;;;;359.23;208.52;;;;;;;12.56;100.00;100847.78;5072376;28;20036;-77
2023/08/08 05:38:49;;;;;;;358.67;208.27;;;;;;;12.61;100.00;100839.97;5055129;28;20030;-78
2023/08/08 05:41:15;;;;;;;364.77;210.52;;;;;;;12.68;100.00;100830.13;5051746;28;20076;-78
2023/08/08 05:43:41;;;;;;;362.42;209.48;;;;;;;12.72;100.00;100839.50;5053234;28;20033;-78
2023/08/08 05:46:06;;;;;;;359.20;207.40;;;;;;;12.76;100.00;100835.41;5052172;28;20025;-78
2023/08/08 05:48:32;;;;;;;363.83;209.93;;;;;;;12.67;100.00;100828.41;5063119;28;20055;-78
2023/08/08 05:50:58;;;;;;;364.83;209.80;;;;;;;12.64;100.00;100833.38;5072132;28;20025;-78
2023/08/08 05:53:24;;;;;;;363.77;209.50;;;;;;;12.73;100.00;100853.84;5072131;28;20028;-78
2023/08/08 05:55:50;;;;;;;366.50;210.98;;;;;;;12.74;100.00;100852.81;5073042;28;20036;-78
2023/08/08 05:58:15;;;;;;;363.58;209.02;;;;;;;12.83;100.00;100857.06;5071571;28;20025;-78
2023/08/08 06:00:42;;;;;;;362.92;209.02;;;;;;;12.82;100.00;100847.31;5073140;28;20032;-78
2023/08/08 06:03:08;;;;;;;364.52;208.88;;;;;;;13.03;100.00;100859.19;5071830;28;20036;-79
2023/08/08 06:05:34;;;;;;;365.25;208.77;;;;;;;13.01;100.00;100859.38;5072787;28;20036;-78
2023/08/08 06:07:59;;;;;;;365.23;208.40;;;;;;;13.12;100.00;100858.88;5054621;28;20083;-79
2023/08/08 06:10:25;;;;;;;368.70;209.63;;;;;;;13.14;100.00;100851.41;5071916;28;20029;-79
2023/08/08 06:12:50;;;;;;;365.70;207.98;;;;;;;13.23;100.00;100859.41;5071879;28;20032;-79
2023/08/08 06:15:16;;;;;;;371.25;209.40;;;;;;;13.34;100.00;100858.94;5072677;28;20108;-78
2023/08/08 06:17:42;;;;;;;369.08;208.50;;;;;;;13.54;100.00;100861.84;5050992;28;20036;-78
2023/08/08 06:20:09;;;;;;;368.30;207.82;;;;;;;13.60;100.00;100834.91;5052028;28;20036;-79
2023/08/08 06:22:35;;;;;;;374.80;210.88;;;;;;;13.93;100.00;100855.97;5038685;28;20078;-79
2023/08/08 06:25:00;;;;;;;373.58;210.25;;;;;;;14.02;100.00;100832.31;5022490;28;20029;-78
2023/08/08 06:27:26;;;;;;;381.92;212.20;;;;;;;14.26;100.00;100836.44;5067879;28;20044;-80
2023/08/08 06:29:55;;;;;;;386.25;213.25;;;;;;;14.36;100.00;100844.19;5075173;28;20031;-79
2023/08/08 06:32:21;;;;;;;388.45;216.13;;;;;;;14.40;100.00;100834.66;5073454;28;20115;-78
2023/08/08 06:34:47;;;;;;;389.00;216.80;;;;;;;14.49;100.00;100839.69;5057682;28;20067;-78
2023/08/08 06:37:13;;;;;;;389.08;215.88;;;;;;;14.59;100.00;100843.97;5075426;28;20032;-78
2023/08/08 06:39:40;;;;;;;391.70;216.93;;;;;;;14.63;100.00;100856.03;5075025;28;20036;-78
2023/08/08 06:42:06;;;;;;;300.20;168.43;;;;;;;14.73;100.00;100846.50;5073930;28;20036;-79
2023/08/08 06:44:42;;;;;;;359.70;200.43;;;;;;;14.85;100.00;100844.09;5037682;28;20033;-80
2023/08/08 06:47:07;;;;;;;348.60;194.15;;;;;;;15.00;100.00;100834.97;5053430;28;20123;-81
2023/08/08 06:49:33;;;;;;;305.35;170.98;;;;;;;15.16;100.00;100830.03;5075693;28;20108;-79
2023/08/08 06:51:59;;;;;;;298.45;166.82;;;;;;;15.27;100.00;100790.69;5041508;28;20426;-80
2023/08/08 06:54:24;;;;;;;349.67;193.20;;;;;;;15.88;100.00;100819.50;5074486;28;20028;-79
2023/08/08 06:56:50;;;;;;;299.98;166.63;;;;;;;15.99;100.00;100829.72;5075658;28;20036;-79
2023/08/08 06:59:16;;;;;;;301.25;166.25;;;;;;;16.21;100.00;100822.19;5075842;28;20024;-80
2023/08/08 07:01:43;;;;;;;381.55;206.63;;;;;;;16.42;100.00;100831.13;5074872;28;20475;-81
2023/08/08 07:04:09;;;;;;;389.50;208.95;;;;;;;16.55;100.00;100816.69;5074517;28;20028;-79
2023/08/08 07:06:36;;;;;;;381.13;204.48;;;;;;;16.77;100.00;100838.94;5075824;28;20034;-81
2023/08/08 07:09:02;;;;;;;370.42;197.80;;;;;;;17.13;100.00;100836.50;5057755;28;20025;-80
2023/08/08 07:11:28;;;;;;;377.45;201.65;;;;;;;17.20;100.00;100836.50;5074535;28;20093;-79
2023/08/08 07:13:54;;;;;;;381.88;203.50;;;;;;;16.91;100.00;100854.19;5075440;28;20103;-79
2023/08/08 07:16:19;;;;;;;385.48;204.88;;;;;;;16.38;100.00;100828.00;5041276;28;20032;-79
2023/08/08 07:18:45;;;;;;;389.13;207.82;;;;;;;16.12;100.00;100844.31;5074329;28;20029;-78
2023/08/08 07:21:11;;;;;;;388.65;207.55;;;;;;;15.90;100.00;100849.94;5052999;28;20380;-78
2023/08/08 07:23:36;;;;;;;389.23;208.55;;;;;;;15.69;100.00;100845.59;5055852;28;20033;-79
2023/08/08 07:26:03;;;;;;;304.95;166.35;;;;;;;15.57;100.00;100829.06;5037567;28;20045;-76
2023/08/08 07:28:29;;;;;;;392.63;211.32;;;;;;;15.66;100.00;100829.69;5055350;28;20387;-77
2023/08/08 07:30:54;;;;;;;380.20;204.40;;;;;;;15.80;100.00;100838.72;5066498;28;20020;-77
2023/08/08 07:33:20;;;;;;;381.50;204.75;;;;;;;15.96;100.00;100838.28;5057183;28;20049;-77
2023/08/08 07:35:45;;;;;;;376.67;203.18;;;;;;;16.07;100.00;100836.81;5058349;28;20382;-77
2023/08/08 07:38:11;;;;;;;381.10;203.93;;;;;;;16.18;100.00;100857.88;5073937;28;20059;-77
2023/08/08 07:40:41;;;;;;;377.55;202.50;;;;;;;16.35;100.00;100862.84;5073250;28;20466;-77
2023/08/08 07:43:06;;;;;;;375.45;201.25;;;;;;;16.37;100.00;100858.06;5055925;28;20039;-78
2023/08/08 07:45:32;;;;;;;376.50;201.43;;;;;;;16.47;100.00;100859.28;5073424;28;20036;-77
2023/08/08 07:47:57;;;;;;;370.80;198.73;;;;;;;16.35;100.00;100841.13;5074795;28;20035;-78
2023/08/08 07:50:23;;;;;;;367.30;197.43;;;;;;;16.23;100.00;100827.41;5053736;28;20044;-77
2023/08/08 07:52:49;;;;;;;371.13;198.75;;;;;;;16.39;100.00;100817.97;5053886;28;20455;-78
2023/08/08 07:55:14;;;;;;;375.77;200.45;;;;;;;16.92;100.00;100842.25;5044281;28;20035;-78
2023/08/08 07:57:40;;;;;;;378.10;200.40;;;;;;;17.37;100.00;100836.78;5036369;28;20037;-79
2023/08/08 08:00:18;;;;;;;368.35;195.07;;;;;;;18.08;100.00;100826.66;5052998;28;20495;-78
2023/08/08 08:02:44;;;;;;;384.27;200.75;;;;;;;19.13;95.83;100829.22;5035208;28;20032;-78
2023/08/08 08:05:13;;;;;;;391.40;202.70;;;;;;;19.29;94.48;100844.94;5064046;28;20078;-81
2023/08/08 08:07:39;;;;;;;395.38;202.93;;;;;;;19.19;91.69;100863.75;5069178;28;20031;-80
2023/08/08 08:10:07;;;;;;;385.45;200.25;;;;;;;19.03;92.24;100870.66;5054022;28;20119;-78
2023/08/08 08:12:33;;;;;;;387.50;199.43;;;;;;;18.98;93.25;100881.41;5071952;28;20029;-77
2023/08/08 08:14:58;;;;;;;386.00;199.65;;;;;;;18.63;92.33;100868.38;5071507;28;20047;-83
2023/08/08 08:17:24;;;;;;;383.75;197.80;;;;;;;18.42;93.57;100866.94;5038995;28;20379;-84
2023/08/08 08:19:51;;;;;;;378.35;196.13;;;;;;;18.63;93.12;100883.91;5056738;28;20490;-83
2023/08/08 08:22:17;;;;;;;377.90;195.88;;;;;;;18.62;94.59;100874.88;5056252;28;20462;-84
2023/08/08 08:24:42;;;;;;;383.30;196.60;;;;;;;18.91;94.58;100888.00;5056243;28;20024;-84
2023/08/08 08:27:08;;;;;;;382.60;197.10;;;;;;;19.03;92.65;100869.84;5070769;28;20059;-84
2023/08/08 08:29:34;;;;;;;376.10;193.75;;;;;;;18.83;91.47;100835.47;5039060;28;20037;-81
2023/08/08 08:31:59;;;;;;;383.98;196.80;;;;;;;18.96;90.61;100866.34;5072623;28;20033;-82
2023/08/08 08:34:25;;;;;;;382.40;196.50;;;;;;;18.80;92.65;100851.47;5055874;28;20067;-83
2023/08/08 08:36:51;;;;;;;381.73;196.48;;;;;;;18.92;91.17;100862.41;5056460;28;20033;-81
2023/08/08 08:39:16;;;;;;;380.83;196.43;;;;;;;19.21;91.40;100878.00;5072609;28;20032;-82
2023/08/08 08:41:44;;;;;;;381.08;196.13;;;;;;;19.49;89.28;100887.47;5056256;28;20036;-83
2023/08/08 08:44:10;;;;;;;382.35;196.43;;;;;;;19.53;88.32;100883.22;5038760;28;20131;-85
2023/08/08 08:46:36;;;;;;;380.02;195.15;;;;;;;19.72;88.14;100882.09;5056123;28;20475;-84
2023/08/08 08:49:03;;;;;;;383.77;196.57;;;;;;;19.77;86.85;100884.16;5072839;28;20032;-84
2023/08/08 08:51:30;;;;;;;379.88;194.23;;;;;;;19.89;84.24;100886.88;5056275;28;20094;-84
2023/08/08 08:53:56;;;;;;;383.52;196.85;;;;;;;19.90;85.97;100867.56;5056066;28;20501;-84
2023/08/08 08:56:22;;;;;;;384.90;196.93;;;;;;;20.12;82.83;100859.63;5039545;28;20038;-84
2023/08/08 08:58:49;;;;;;;378.45;193.43;;;;;;;20.21;81.05;100888.22;5056277;28;20049;-84
2023/08/08 09:01:15;;;;;;;379.85;194.45;;;;;;;19.84;82.35;100884.84;5055950;28;20086;-83
2023/08/08 09:03:41;;;;;;;383.25;195.80;;;;;;;19.30;85.40;100903.84;5056187;28;20390;-84
2023/08/08 09:06:07;;;;;;;378.60;194.07;;;;;;;18.95;87.40;100892.78;5072590;28;20059;-84
2023/08/08 09:08:33;;;;;;;382.13;195.63;;;;;;;18.58;86.92;100897.34;5072251;28;20463;-83
2023/08/08 09:10:58;;;;;;;376.80;193.88;;;;;;;18.14;90.10;100885.63;5055863;28;20036;-84
2023/08/08 09:13:27;;;;;;;382.55;197.50;;;;;;;18.01;90.59;100916.50;5056483;28;20078;-84
2023/08/08 09:15:53;;;;;;;380.15;196.27;;;;;;;17.74;92.02;100889.44;5070753;28;20483;-84
2023/08/08 09:18:19;;;;;;;380.58;196.95;;;;;;;17.62;93.17;100896.63;5055227;28;20068;-84
2023/08/08 09:20:51;;;;;;;380.67;197.65;;;;;;;17.49;95.26;100883.97;5052600;28;20115;-80
2023/08/08 09:23:19;;;;;;;394.88;204.98;;;;;;;17.76;95.85;100900.13;5049968;28;20079;-79
2023/08/08 09:25:45;;;;;;;382.23;198.90;;;;;;;17.93;95.20;100906.72;5052848;28;20482;-81
2023/08/08 09:28:11;;;;;;;381.25;198.88;;;;;;;17.90;96.18;100900.88;5065718;28;20055;-79
2023/08/08 09:30:36;;;;;;;379.88;197.93;;;;;;;17.94;94.73;100918.41;5020624;28;20032;-81
2023/08/08 09:33:02;;;;;;;379.67;197.93;;;;;;;17.89;94.60;100915.53;5050647;28;20456;-80
2023/08/08 09:35:30;;;;;;;378.85;198.40;;;;;;;17.94;94.95;100904.81;5065741;28;20032;-80
2023/08/08 09:37:56;;;;;;;379.85;198.00;;;;;;;18.15;95.12;100900.88;5042158;28;20037;-80
2023/08/08 09:40:23;;;;;;;378.13;197.15;;;;;;;18.35;93.09;100893.38;5046922;28;20036;-80
2023/08/08 09:42:51;;;;;;;374.85;196.05;;;;;;;18.25;92.56;100882.16;5066759;28;20090;-80
2023/08/08 09:45:17;;;;;;;379.75;198.13;;;;;;;18.02;92.74;100885.53;5053677;28;20143;-81
2023/08/08 09:47:42;;;;;;;374.15;195.93;;;;;;;17.57;94.69;100847.53;5069102;28;20111;-82
2023/08/08 09:50:08;;;;;;;373.20;195.65;;;;;;;17.58;95.91;100869.06;5068798;28;20045;-82
2023/08/08 09:52:35;;;;;;;376.65;197.25;;;;;;;17.41;97.69;100857.06;5037176;28;20032;-80
2023/08/08 09:55:02;;;;;;;377.65;197.90;;;;;;;17.23;98.19;100829.78;5040861;28;20463;-80
2023/08/08 09:57:29;;;;;;;378.77;198.20;;;;;;;17.54;100.00;100867.00;5057421;28;20479;-79
2023/08/08 10:00:00;;;;;;;380.23;198.98;;;;;;;17.76;100.00;100872.94;5056693;28;20736;-80
2023/08/08 10:02:25;;;;;;;376.92;198.93;;;;;;;17.95;98.92;100877.41;5074385;28;20425;-80
2023/08/08 10:05:06;;;;;;;376.48;197.40;;;;;;;18.23;98.62;100873.38;5074191;28;20067;-80
2023/08/08 10:07:45;;;;;;;377.75;198.45;;;;;;;18.16;96.75;100873.47;5040387;28;20044;-80
2023/08/08 10:10:14;;;;;;;380.33;199.38;;;;;;;18.22;97.06;100888.06;5068423;28;20040;-82
2023/08/08 10:12:41;;;;;;;378.45;198.55;;;;;;;18.28;94.87;100900.75;5013608;28;20115;-82
2023/08/08 10:15:10;;;;;;;379.88;198.40;;;;;;;18.34;93.54;100918.13;5036531;28;20514;-81
2023/08/08 10:17:38;;;;;;;380.63;198.30;;;;;;;18.49;90.91;100915.03;5043059;28;20432;-79
2023/08/08 10:20:11;;;;;;;374.88;196.07;;;;;;;18.57;91.11;100931.91;5046722;28;20075;-81
2023/08/08 10:22:46;;;;;;;385.58;201.45;;;;;;;18.55;90.15;100922.28;5057639;28;20502;-80
2023/08/08 10:25:26;;;;;;;384.08;200.50;;;;;;;18.61;90.22;100948.66;5043661;28;20043;-81
2023/08/08 10:28:06;;;;;;;382.85;200.35;;;;;;;18.46;92.18;100960.69;5039248;28;20044;-81
2023/08/08 10:30:50;;;;;;;382.23;200.20;;;;;;;18.16;94.56;100957.00;5050025;28;20039;-81
2023/08/08 10:33:20;;;;;;;383.90;201.82;;;;;;;17.84;96.20;100935.25;5075158;28;20032;-81
2023/08/08 10:36:06;;;;;;;381.95;200.07;;;;;;;17.58;96.65;100914.44;5054573;28;20044;-81
2023/08/08 10:38:52;;;;;;;382.27;201.98;;;;;;;17.08;100.00;100881.69;5057858;28;20036;-79
2023/08/08 10:41:21;;;;;;;384.45;203.05;;;;;;;16.77;100.00;100912.25;5074663;28;20492;-82
2023/08/08 10:43:54;;;;;;;372.63;197.23;;;;;;;16.27;100.00;100902.75;5040538;28;20044;-79
2023/08/08 10:46:25;;;;;;;288.80;158.00;;;;;;;15.84;100.00;100894.16;5073537;28;20033;-79
2023/08/08 10:48:52;;;;;;;320.45;167.35;;;;;;;15.71;100.00;100908.53;5073577;28;20455;-80